Time;durP1;ratioP1;P1;durP2;ratioP2;P2;SDS_P1;SDS_P2;PMS_P1;PMS_P2;Temp;Humidity;BMP_temperature;BMP_pressure;BME280_temperature;BME280_humidity;BME280_pressure;Samples;Min_cycle;Max_cycle;Signal;HPM_P1;HPM_P2
2022/10/19 00:00:16;;;;;;;;;;;;;;;13.01;100.00;98720.50;7401780;19;19915;-58
2022/10/19 00:02:45;;;;;;;;;;;;;;;13.22;100.00;98728.09;7399035;19;19927;-58
2022/10/19 00:08:26;;;;;;;;;;;;;;;13.20;100.00;98735.22;7396306;19;19914;-57
2022/10/19 00:10:55;;;;;;;;;;;;;;;12.73;100.00;98738.59;7401507;19;19940;-58
2022/10/19 00:23:04;;;;;;;;;;;;;;;13.00;100.00;98737.16;7408624;19;20235;-58
2022/10/19 00:25:37;;;;;;;;;;;;;;;13.03;100.00;98735.25;7405975;19;20296;-58
2022/10/19 00:28:06;;;;;;;;;;;;;;;12.89;100.00;98731.59;7402898;19;19914;-58
2022/10/19 00:33:49;;;;;;;;;;;;;;;12.85;100.00;98730.94;7404879;19;19913;-57
2022/10/19 00:39:33;;;;;;;;;;;;;;;13.07;100.00;98733.31;7406093;19;19918;-57
2022/10/19 00:45:16;;;;;;;;;;;;;;;13.33;100.00;98728.38;7404217;19;19918;-56
2022/10/19 00:54:07;;;;;;;;;;;;;;;13.07;100.00;98721.00;7399141;19;19922;-58
2022/10/19 00:56:41;;;;;;;;;;;;;;;12.83;100.00;98724.06;7403415;19;20205;-58
2022/10/19 00:59:36;;;;;;;;;;;;;;;12.82;100.00;98719.72;7400034;19;19922;-56
2022/10/19 01:02:17;;;;;;;;;;;;;;;12.84;100.00;98717.88;7398974;19;20285;-54
2022/10/19 01:04:50;;;;;;;;;;;;;;;12.96;100.00;98723.34;7401208;19;19922;-60
2022/10/19 01:10:25;;;;;;;;;;;;;;;12.87;100.00;98709.81;7400415;19;20018;-46
2022/10/19 01:16:22;;;;;;;;;;;;;;;12.94;100.00;98708.59;7402239;19;19944;-46
2022/10/19 01:28:32;;;;;;;;;;;;;;;13.09;100.00;98705.97;7398174;19;19941;-46
2022/10/19 01:31:07;;;;;;;;;;;;;;;13.02;100.00;98712.50;7398435;19;20233;-47
2022/10/19 01:34:07;;;;;;;;;;;;;;;13.06;100.00;98713.19;7399093;19;19925;-48
2022/10/19 01:40:04;;;;;;;;;;;;;;;12.95;100.00;98705.88;7397310;19;19936;-49
2022/10/19 01:43:10;;;;;;;;;;;;;;;13.01;100.00;98710.81;7398569;19;19926;-49
2022/10/19 02:03:33;;;;;;;;;;;;;;;12.50;100.00;98694.22;7406055;19;19914;-50
2022/10/19 02:06:05;;;;;;;;;;;;;;;12.35;100.00;98698.44;7399470;19;19936;-56
2022/10/19 02:11:48;;;;;;;;;;;;;;;12.18;100.00;98692.34;7404009;19;19917;-51
2022/10/19 02:17:30;;;;;;;;;;;;;;;12.23;100.00;98692.94;7401092;19;19925;-56
2022/10/19 02:23:15;;;;;;;;;;;;;;;12.17;100.00;98703.78;7402399;19;19936;-54
2022/10/19 02:43:52;;;;;;;;;;;;;;;12.11;100.00;98694.41;7396802;19;19922;-52
2022/10/19 02:49:49;;;;;;;;;;;;;;;12.23;100.00;98709.56;7403847;19;20033;-50
2022/10/19 02:55:36;;;;;;;;;;;;;;;12.04;100.00;98703.47;7398036;19;19989;-52
2022/10/19 03:01:20;;;;;;;;;;;;;;;11.95;100.00;98713.56;7402309;19;19918;-53
2022/10/19 03:03:49;;;;;;;;;;;;;;;12.15;100.00;98706.47;7397961;19;19997;-50
2022/10/19 03:12:52;;;;;;;;;;;;;;;11.75;100.00;98711.03;7403637;19;19940;-50
2022/10/19 03:18:37;;;;;;;;;;;;;;;11.76;100.00;98699.63;7396473;19;19914;-54
2022/10/19 03:23:53;;;;;;;;;;;;;;;11.57;100.00;98704.84;7398428;19;19931;-54
2022/10/19 03:26:23;;;;;;;;;;;;;;;11.61;100.00;98703.78;7400946;19;20301;-50
2022/10/19 03:28:52;;;;;;;;;;;;;;;11.57;100.00;98709.25;7400546;19;19941;-52
2022/10/19 03:34:23;;;;;;;;;;;;;;;11.55;100.00;98690.97;7398341;19;20025;-50
2022/10/19 03:43:17;;;;;;;;;;;;;;;11.43;100.00;98693.31;7403233;19;20327;-51
2022/10/19 04:01:20;;;;;;;;;;;;;;;11.08;100.00;98688.78;7397542;19;20248;-51
2022/10/19 04:03:49;;;;;;;;;;;;;;;11.14;100.00;98691.16;7396848;19;20269;-50
2022/10/19 04:12:32;;;;;;;;;;;;;;;11.22;100.00;98682.03;7400420;19;19919;-52
2022/10/19 04:15:05;;;;;;;;;;;;;;;10.93;100.00;98687.72;7398373;19;19947;-54
2022/10/19 04:20:26;;;;;;;;;;;;;;;10.93;100.00;98683.31;7399376;19;19918;-49
2022/10/19 04:26:10;;;;;;;;;;;;;;;10.81;100.00;98678.63;7394097;19;19926;-51
2022/10/19 04:31:31;;;;;;;;;;;;;;;10.86;100.00;98676.63;7391877;19;19918;-51
2022/10/19 04:37:12;;;;;;;;;;;;;;;10.76;100.00;98670.13;7397989;19;19943;-50
2022/10/19 04:39:43;;;;;;;;;;;;;;;10.88;100.00;98673.94;7394516;19;19923;-53
2022/10/19 04:51:11;;;;;;;;;;;;;;;11.50;100.00;98658.00;7393200;19;19907;-51
2022/10/19 05:05:23;;;;;;;;;;;;;;;11.11;100.00;98646.72;7407430;19;20434;-50
2022/10/19 05:10:56;;;;;;;;;;;;;;;11.35;100.00;98648.22;7405757;19;19914;-50
2022/10/19 05:19:52;;;;;;;;;;;;;;;11.26;100.00;98639.00;7407629;19;19932;-50
2022/10/19 05:22:24;;;;;;;;;;;;;;;10.84;100.00;98639.19;7402768;19;19986;-51
2022/10/19 05:27:58;;;;;;;;;;;;;;;11.09;100.00;98643.31;7398780;19;20058;-53
2022/10/19 05:33:40;;;;;;;;;;;;;;;10.94;100.00;98652.72;7402261;19;19926;-51
2022/10/19 05:42:37;;;;;;;;;;;;;;;10.89;100.00;98650.28;7407219;19;19939;-51
2022/10/19 06:00:10;;;;;;;;;;;;;;;11.42;100.00;98637.38;7391859;19;19942;-50
2022/10/19 06:02:42;;;;;;;;;;;;;;;11.31;100.00;98646.66;7398643;19;19944;-51
2022/10/19 06:05:11;;;;;;;;;;;;;;;11.38;100.00;98648.06;7386146;19;19919;-50
2022/10/19 06:07:43;;;;;;;;;;;;;;;11.56;100.00;98657.72;7382350;19;20357;-50
2022/10/19 06:10:12;;;;;;;;;;;;;;;11.37;100.00;98656.88;7388907;19;20325;-52
2022/10/19 06:12:44;;;;;;;;;;;;;;;11.41;100.00;98668.91;7388810;19;19946;-50
2022/10/19 06:15:16;;;;;;;;;;;;;;;11.47;100.00;98661.59;7390130;19;19918;-49
2022/10/19 06:17:47;;;;;;;;;;;;;;;11.29;100.00;98664.25;7383756;19;19918;-50
2022/10/19 06:20:16;;;;;;;;;;;;;;;11.76;100.00;98670.75;7385355;19;20234;-53
2022/10/19 06:22:45;;;;;;;;;;;;;;;11.55;100.00;98661.25;7389693;19;20564;-50
2022/10/19 06:25:14;;;;;;;;;;;;;;;12.05;100.00;98668.41;7389762;19;19928;-51
2022/10/19 06:27:43;;;;;;;;;;;;;;;11.72;100.00;98674.44;7385509;19;20331;-58
2022/10/19 06:30:12;;;;;;;;;;;;;;;11.70;100.00;98679.75;7389857;19;19943;-49
2022/10/19 06:32:44;;;;;;;;;;;;;;;12.11;100.00;98670.78;7384950;19;19925;-50
2022/10/19 06:35:13;;;;;;;;;;;;;;;12.12;100.00;98655.84;7386042;19;20292;-52
2022/10/19 06:37:43;;;;;;;;;;;;;;;11.73;100.00;98658.59;7389311;19;20220;-49
2022/10/19 06:40:15;;;;;;;;;;;;;;;11.74;100.00;98676.06;7389926;19;19982;-48
2022/10/19 06:42:44;;;;;;;;;;;;;;;11.88;100.00;98670.16;7383674;19;19978;-59
2022/10/19 06:45:16;;;;;;;;;;;;;;;11.92;100.00;98672.56;7388602;19;19943;-49
2022/10/19 06:47:48;;;;;;;;;;;;;;;12.15;100.00;98668.84;7386634;19;19919;-53
2022/10/19 06:50:17;;;;;;;;;;;;;;;11.98;100.00;98672.25;7381315;19;20336;-49
2022/10/19 06:52:46;;;;;;;;;;;;;;;11.86;100.00;98662.34;7385925;19;19950;-48
2022/10/19 06:55:16;;;;;;;;;;;;;;;11.59;100.00;98678.56;7386637;19;19975;-49
2022/10/19 06:57:45;;;;;;;;;;;;;;;11.73;100.00;98684.84;7381091;19;20340;-51
2022/10/19 07:00:15;;;;;;;;;;;;;;;11.68;100.00;98688.59;7385745;19;19922;-49
2022/10/19 07:02:44;;;;;;;;;;;;;;;11.57;100.00;98683.00;7384812;19;20016;-50
2022/10/19 07:05:16;;;;;;;;;;;;;;;11.71;100.00;98688.47;7381410;19;19918;-52
2022/10/19 07:07:44;;;;;;;;;;;;;;;11.81;100.00;98690.59;7388051;19;19921;-49
2022/10/19 07:10:14;;;;;;;;;;;;;;;11.66;100.00;98698.34;7388875;19;19943;-49
2022/10/19 07:12:43;;;;;;;;;;;;;;;11.83;100.00;98688.75;7381670;19;20253;-48
2022/10/19 07:15:14;;;;;;;;;;;;;;;12.18;100.00;98687.06;7388018;19;19919;-49
2022/10/19 07:17:46;;;;;;;;;;;;;;;11.51;100.00;98691.19;7388343;19;19911;-48
2022/10/19 07:20:18;;;;;;;;;;;;;;;11.76;100.00;98694.38;7381158;19;19915;-48
2022/10/19 07:22:47;;;;;;;;;;;;;;;11.54;100.00;98691.88;7389331;19;20296;-49
2022/10/19 07:25:16;;;;;;;;;;;;;;;11.58;100.00;98696.06;7387846;19;19914;-49
2022/10/19 07:27:45;;;;;;;;;;;;;;;11.95;100.00;98708.31;7383947;19;19915;-54
2022/10/19 07:30:14;;;;;;;;;;;;;;;11.72;100.00;98713.81;7389362;19;19946;-50
2022/10/19 07:32:43;;;;;;;;;;;;;;;11.96;100.00;98707.38;7387896;19;19918;-50
2022/10/19 07:35:12;;;;;;;;;;;;;;;11.84;100.00;98705.34;7382831;19;19917;-50
2022/10/19 07:37:44;;;;;;;;;;;;;;;11.75;100.00;98711.03;7387236;19;19918;-50
2022/10/19 07:40:14;;;;;;;;;;;;;;;12.30;100.00;98700.47;7388001;19;19911;-48
2022/10/19 07:42:43;;;;;;;;;;;;;;;11.91;100.00;98704.13;7383012;19;20303;-49
2022/10/19 07:45:12;;;;;;;;;;;;;;;12.15;100.00;98705.59;7389441;19;19915;-50
2022/10/19 07:47:42;;;;;;;;;;;;;;;11.85;100.00;98704.41;7389857;19;19919;-48
2022/10/19 07:50:11;;;;;;;;;;;;;;;11.95;100.00;98695.19;7384432;19;19915;-50
2022/10/19 07:52:40;;;;;;;;;;;;;;;12.21;100.00;98695.69;7386743;19;19911;-48
2022/10/19 07:55:14;;;;;;;;;;;;;;;12.24;100.00;98687.63;7388669;19;19927;-50
2022/10/19 07:57:43;;;;;;;;;;;;;;;12.68;100.00;98707.28;7383650;19;20300;-49
2022/10/19 08:00:14;;;;;;;;;;;;;;;12.05;100.00;98699.09;7386336;19;19915;-49
2022/10/19 08:02:42;;;;;;;;;;;;;;;12.45;100.00;98699.69;7388234;19;19915;-50
2022/10/19 08:05:12;;;;;;;;;;;;;;;12.89;100.00;98695.66;7381981;19;19935;-50
2022/10/19 08:07:41;;;;;;;;;;;;;;;12.23;100.00;98703.44;7388227;19;19923;-52
2022/10/19 08:10:12;;;;;;;;;;;;;;;12.47;100.00;98697.00;7386462;19;19925;-50
2022/10/19 08:12:41;;;;;;;;;;;;;;;12.42;100.00;98693.75;7381950;19;19915;-49
2022/10/19 08:15:15;;;;;;;;;;;;;;;12.56;100.00;98701.78;7386190;19;20303;-49
2022/10/19 08:17:44;;;;;;;;;;;;;;;12.29;100.00;98705.78;7388605;19;19915;-49
2022/10/19 08:20:13;;;;;;;;;;;;;;;12.49;100.00;98705.63;7381963;19;19936;-49
2022/10/19 08:22:44;;;;;;;;;;;;;;;12.31;100.00;98704.78;7386115;19;19936;-49
2022/10/19 08:25:15;;;;;;;;;;;;;;;12.29;100.00;98698.78;7387569;19;19939;-49
2022/10/19 08:27:44;;;;;;;;;;;;;;;12.69;100.00;98708.13;7384776;19;19918;-49
2022/10/19 08:30:13;;;;;;;;;;;;;;;12.27;100.00;98703.22;7385878;19;20272;-49
2022/10/19 08:32:43;;;;;;;;;;;;;;;12.05;100.00;98693.84;7389749;19;19925;-49
2022/10/19 08:35:12;;;;;;;;;;;;;;;12.09;100.00;98698.00;7389889;19;19952;-49
2022/10/19 08:37:41;;;;;;;;;;;;;;;12.19;100.00;98701.91;7393761;19;20304;-58
2022/10/19 08:40:18;;;;;;;;;;;;;;;11.92;100.00;98708.47;7395752;19;19919;-49
2022/10/19 08:42:54;;;;;;;;;;;;;;;11.90;100.00;98711.16;7394906;19;20416;-47
2022/10/19 08:45:28;;;;;;;;;;;;;;;11.80;100.00;98707.25;7394440;19;19978;-50
2022/10/19 08:48:01;;;;;;;;;;;;;;;11.71;100.00;98710.31;7389704;19;20235;-49
2022/10/19 08:50:36;;;;;;;;;;;;;;;11.83;100.00;98708.91;7395667;19;19925;-48
2022/10/19 08:53:06;;;;;;;;;;;;;;;11.72;100.00;98711.19;7392248;19;19914;-58
2022/10/19 08:55:44;;;;;;;;;;;;;;;12.07;100.00;98705.97;7392561;19;20309;-49
2022/10/19 08:58:24;;;;;;;;;;;;;;;11.99;100.00;98697.59;7392554;19;19939;-48
2022/10/19 09:00:57;;;;;;;;;;;;;;;12.39;100.00;98704.41;7390013;19;20421;-48
2022/10/19 09:03:27;;;;;;;;;;;;;;;12.37;100.00;98714.13;7391042;19;19915;-51
2022/10/19 09:06:15;;;;;;;;;;;;;;;12.06;100.00;98714.72;7393367;19;19922;-50
2022/10/19 09:08:44;;;;;;;;;;;;;;;12.48;100.00;98709.19;7394521;19;19923;-49
2022/10/19 09:11:17;;;;;;;;;;;;;;;12.35;100.00;98705.50;7391443;19;19923;-48
2022/10/19 09:13:50;;;;;;;;;;;;;;;11.96;100.00;98710.00;7389007;19;19930;-51
2022/10/19 09:16:21;;;;;;;;;;;;;;;11.97;100.00;98707.31;7393255;19;19996;-49
2022/10/19 09:18:51;;;;;;;;;;;;;;;11.99;100.00;98709.88;7387380;19;19918;-57
2022/10/19 09:21:21;;;;;;;;;;;;;;;12.26;100.00;98713.81;7393160;19;19949;-52
2022/10/19 09:23:55;;;;;;;;;;;;;;;12.24;100.00;98720.94;7393669;19;20545;-48
2022/10/19 09:26:27;;;;;;;;;;;;;;;12.14;100.00;98720.53;7387664;19;19911;-50
2022/10/19 09:29:01;;;;;;;;;;;;;;;12.09;100.00;98722.47;7390525;19;19914;-48
2022/10/19 09:31:32;;;;;;;;;;;;;;;11.94;100.00;98717.13;7391393;19;19922;-49
2022/10/19 09:34:03;;;;;;;;;;;;;;;12.38;100.00;98714.06;7386918;19;20311;-50
2022/10/19 09:36:37;;;;;;;;;;;;;;;12.22;100.00;98718.38;7392870;19;19926;-49
2022/10/19 09:39:09;;;;;;;;;;;;;;;12.28;100.00;98711.97;7388825;19;20315;-49
2022/10/19 09:41:38;;;;;;;;;;;;;;;12.27;100.00;98723.38;7393583;19;19910;-54
2022/10/19 09:44:10;;;;;;;;;;;;;;;12.23;100.00;98719.22;7395180;19;19935;-50
2022/10/19 09:46:47;;;;;;;;;;;;;;;12.21;100.00;98715.81;7401721;19;19914;-49
2022/10/19 09:49:16;;;;;;;;;;;;;;;12.17;100.00;98728.22;7402725;19;20321;-48
2022/10/19 09:51:57;;;;;;;;;;;;;;;12.30;100.00;98726.72;7389234;19;19922;-49
2022/10/19 09:57:23;;;;;;;;;;;;;;;12.33;100.00;98726.59;7393343;19;19915;-50
2022/10/19 09:59:57;;;;;;;;;;;;;;;12.60;100.00;98719.09;7385379;19;19918;-50
2022/10/19 10:02:32;;;;;;;;;;;;;;;12.62;100.00;98717.25;7388098;19;19919;-50
2022/10/19 10:05:06;;;;;;;;;;;;;;;12.41;100.00;98720.94;7386877;19;20367;-52
2022/10/19 10:07:47;;;;;;;;;;;;;;;12.53;100.00;98720.34;7390296;19;20304;-51
2022/10/19 10:10:21;;;;;;;;;;;;;;;12.90;100.00;98722.81;7389519;19;20344;-52
2022/10/19 10:12:51;;;;;;;;;;;;;;;12.38;100.00;98721.94;7395697;19;20320;-49
2022/10/19 10:15:24;;;;;;;;;;;;;;;12.71;100.00;98716.78;7397652;19;19929;-48
2022/10/19 10:17:54;;;;;;;;;;;;;;;12.88;100.00;98720.25;7398701;19;19919;-54
2022/10/19 10:20:26;;;;;;;;;;;;;;;12.92;100.00;98713.06;7395789;19;19923;-50
2022/10/19 10:22:58;;;;;;;;;;;;;;;12.61;100.00;98720.81;7388565;19;19915;-47
2022/10/19 10:25:29;;;;;;;;;;;;;;;12.84;100.00;98716.09;7386870;19;19982;-52
2022/10/19 10:28:00;;;;;;;;;;;;;;;12.46;100.00;98717.16;7387532;19;19936;-49
2022/10/19 10:30:35;;;;;;;;;;;;;;;12.42;100.00;98727.91;7394219;19;19943;-48
2022/10/19 10:39:42;;;;;;;;;;;;;;;12.29;100.00;98737.31;7396517;19;19925;-49
2022/10/19 10:45:58;;;;;;;;;;;;;;;12.17;100.00;98730.03;7392679;19;20243;-48
2022/10/19 10:48:46;;;;;;;;;;;;;;;12.24;100.00;98724.38;7387334;19;20273;-51
2022/10/19 10:51:22;;;;;;;;;;;;;;;12.61;100.00;98724.28;7384985;19;19926;-51
2022/10/19 10:53:52;;;;;;;;;;;;;;;12.47;100.00;98718.00;7383448;19;20317;-48
2022/10/19 10:56:25;;;;;;;;;;;;;;;12.58;100.00;98724.44;7382107;19;19923;-49
2022/10/19 10:58:58;;;;;;;;;;;;;;;12.63;100.00;98716.31;7385508;19;19922;-49
2022/10/19 11:01:30;;;;;;;;;;;;;;;12.46;100.00;98711.06;7384392;19;19918;-57
2022/10/19 11:04:02;;;;;;;;;;;;;;;12.44;100.00;98708.53;7390165;19;20363;-50
2022/10/19 11:06:33;;;;;;;;;;;;;;;12.46;100.00;98713.69;7389335;19;19929;-48
2022/10/19 11:09:08;;;;;;;;;;;;;;;12.34;100.00;98720.41;7384139;19;19936;-51
2022/10/19 11:11:41;;;;;;;;;;;;;;;12.26;100.00;98719.94;7388922;19;19926;-48
2022/10/19 11:14:24;;;;;;;;;;;;;;;12.05;100.00;98720.91;7388062;19;20224;-52
2022/10/19 11:16:54;;;;;;;;;;;;;;;12.09;100.00;98726.91;7388410;19;19954;-51
2022/10/19 11:19:27;;;;;;;;;;;;;;;12.18;100.00;98713.34;7388744;19;19915;-49
2022/10/19 11:21:59;;;;;;;;;;;;;;;12.33;100.00;98715.22;7384589;19;19982;-52
2022/10/19 11:24:34;;;;;;;;;;;;;;;12.62;100.00;98725.13;7389883;19;19960;-49
2022/10/19 11:27:12;;;;;;;;;;;;;;;12.58;100.00;98720.97;7388054;19;19918;-56
2022/10/19 11:33:03;;;;;;;;;;;;;;;12.47;100.00;98708.38;7397775;19;20244;-47
2022/10/19 11:42:10;;;;;;;;;;;;;;;12.57;100.00;98703.50;7399476;19;19979;-51
2022/10/19 11:45:05;;;;;;;;;;;;;;;12.38;100.00;98703.56;7391764;19;19956;-49
2022/10/19 11:47:50;;;;;;;;;;;;;;;12.36;100.00;98694.91;7388863;19;19947;-49
2022/10/19 11:50:25;;;;;;;;;;;;;;;12.45;100.00;98697.06;7390780;19;20303;-48
2022/10/19 11:52:59;;;;;;;;;;;;;;;12.57;100.00;98696.44;7390026;19;20260;-51
2022/10/19 11:55:47;;;;;;;;;;;;;;;12.52;100.00;98705.50;7389132;19;19990;-50
2022/10/19 11:58:31;;;;;;;;;;;;;;;12.55;100.00;98695.69;7376058;19;19918;-50
2022/10/19 12:01:03;;;;;;;;;;;;;;;12.41;100.00;98692.91;7380909;19;20324;-48
2022/10/19 12:03:44;;;;;;;;;;;;;;;12.55;100.00;98700.94;7379439;19;19922;-51
2022/10/19 12:06:19;;;;;;;;;;;;;;;12.60;100.00;98691.03;7391825;19;19923;-48
2022/10/19 12:08:56;;;;;;;;;;;;;;;12.69;100.00;98684.47;7392098;19;19944;-57
2022/10/19 12:11:33;;;;;;;;;;;;;;;12.90;100.00;98681.59;7391368;19;19923;-51
2022/10/19 12:14:07;;;;;;;;;;;;;;;12.90;100.00;98673.69;7391493;19;19930;-50
2022/10/19 12:16:41;;;;;;;;;;;;;;;12.99;100.00;98680.25;7393283;19;20405;-48
2022/10/19 12:19:14;;;;;;;;;;;;;;;12.91;100.00;98677.19;7393719;19;19919;-49
2022/10/19 12:21:44;;;;;;;;;;;;;;;12.65;100.00;98675.88;7389300;19;19915;-50
2022/10/19 12:24:16;;;;;;;;;;;;;;;12.70;100.00;98675.66;7394376;19;19918;-51
2022/10/19 12:26:47;;;;;;;;;;;;;;;12.76;100.00;98673.56;7393843;19;19943;-50
2022/10/19 12:29:21;;;;;;;;;;;;;;;12.79;100.00;98683.09;7389645;19;19923;-51
2022/10/19 12:31:52;;;;;;;;;;;;;;;12.67;100.00;98678.44;7394432;19;19910;-49
2022/10/19 12:34:29;;;;;;;;;;;;;;;12.66;100.00;98666.22;7392114;19;19989;-49
2022/10/19 12:37:03;;;;;;;;;;;;;;;12.91;100.00;98677.19;7390874;19;19918;-48
2022/10/19 12:39:35;;;;;;;;;;;;;;;12.66;100.00;98661.84;7394698;19;20250;-48
2022/10/19 12:42:11;;;;;;;;;;;;;;;12.67;100.00;98667.91;7389104;19;20300;-50
2022/10/19 12:44:56;;;;;;;;;;;;;;;12.32;100.00;98671.50;7392552;19;19914;-49
2022/10/19 12:47:27;;;;;;;;;;;;;;;12.20;100.00;98677.38;7405984;19;20317;-49
2022/10/19 12:50:01;;;;;;;;;;;;;;;12.58;100.00;98685.03;7404218;19;19919;-49
2022/10/19 12:52:54;;;;;;;;;;;;;;;12.41;100.00;98674.50;7397995;19;19949;-49
2022/10/19 13:01:51;;;;;;;;;;;;;;;12.29;100.00;98687.41;7400555;19;20311;-50
2022/10/19 13:04:26;;;;;;;;;;;;;;;11.99;100.00;98681.00;7402437;19;19922;-57
2022/10/19 13:07:02;;;;;;;;;;;;;;;12.04;100.00;98681.59;7388855;19;19922;-49
2022/10/19 13:09:33;;;;;;;;;;;;;;;11.92;100.00;98682.22;7393409;19;19918;-52
2022/10/19 13:12:19;;;;;;;;;;;;;;;12.10;100.00;98686.56;7387025;19;19929;-50
2022/10/19 13:14:50;;;;;;;;;;;;;;;12.11;100.00;98680.41;7392546;19;19915;-50
2022/10/19 13:17:35;;;;;;;;;;;;;;;12.32;100.00;98676.75;7387946;19;19911;-51
2022/10/19 13:20:19;;;;;;;;;;;;;;;12.36;100.00;98667.78;7394174;19;20304;-47
2022/10/19 13:22:52;;;;;;;;;;;;;;;12.47;100.00;98675.97;7387849;19;19919;-49
2022/10/19 13:25:25;;;;;;;;;;;;;;;12.60;100.00;98684.94;7393553;19;20324;-50
2022/10/19 13:27:56;;;;;;;;;;;;;;;12.37;100.00;98672.09;7392583;19;19928;-57
2022/10/19 13:30:40;;;;;;;;;;;;;;;12.33;100.00;98687.19;7389471;19;19917;-49
2022/10/19 13:33:31;;;;;;;;;;;;;;;12.19;100.00;98680.88;7393152;19;19911;-48
2022/10/19 13:36:10;;;;;;;;;;;;;;;12.14;100.00;98691.66;7399785;19;19919;-48
2022/10/19 13:41:57;;;;;;;;;;;;;;;11.49;100.00;98698.25;7393325;19;20083;-51
2022/10/19 13:44:29;;;;;;;;;;;;;;;11.61;100.00;98703.78;7391217;19;19966;-50
2022/10/19 13:47:13;;;;;;;;;;;;;;;11.55;100.00;98705.84;7391215;19;19915;-51
2022/10/19 13:49:57;;;;;;;;;;;;;;;11.40;100.00;98698.69;7391699;19;19918;-48
2022/10/19 13:52:45;;;;;;;;;;;;;;;11.75;100.00;98711.88;7390050;19;20308;-50
2022/10/19 13:55:27;;;;;;;;;;;;;;;11.65;100.00;98709.78;7391134;19;19910;-51
2022/10/19 13:58:12;;;;;;;;;;;;;;;11.70;100.00;98718.25;7388613;19;19923;-49
2022/10/19 14:00:56;;;;;;;;;;;;;;;11.36;100.00;98715.50;7389122;19;20319;-51
2022/10/19 14:03:31;;;;;;;;;;;;;;;11.43;100.00;98701.19;7384395;19;20240;-50
2022/10/19 14:06:06;;;;;;;;;;;;;;;11.47;100.00;98702.75;7391774;19;19923;-50
2022/10/19 14:08:50;;;;;;;;;;;;;;;11.62;100.00;98715.16;7389178;19;19907;-57
2022/10/19 14:11:26;;;;;;;;;;;;;;;11.46;100.00;98708.91;7390162;19;19911;-50
2022/10/19 14:14:10;;;;;;;;;;;;;;;11.77;100.00;98709.19;7386468;19;19911;-52
2022/10/19 14:16:52;;;;;;;;;;;;;;;11.39;100.00;98707.50;7391726;19;19910;-50
2022/10/19 14:19:25;;;;;;;;;;;;;;;11.47;100.00;98700.94;7386235;19;19986;-50
2022/10/19 14:21:56;;;;;;;;;;;;;;;12.06;100.00;98695.53;7391885;19;20303;-49
2022/10/19 14:24:32;;;;;;;;;;;;;;;12.20;100.00;98695.75;7391392;19;19910;-49
2022/10/19 14:27:05;;;;;;;;;;;;;;;11.97;100.00;98696.81;7390823;19;19916;-49
2022/10/19 14:29:37;;;;;;;;;;;;;;;11.91;100.00;98701.50;7384972;19;20251;-48
2022/10/19 14:32:11;;;;;;;;;;;;;;;11.87;100.00;98705.22;7391943;19;19918;-49
2022/10/19 14:34:42;;;;;;;;;;;;;;;11.80;100.00;98706.41;7385913;19;19927;-50
2022/10/19 14:37:16;;;;;;;;;;;;;;;11.68;100.00;98699.09;7391845;19;19913;-50
2022/10/19 14:39:58;;;;;;;;;;;;;;;11.66;100.00;98703.59;7383328;19;19918;-51
2022/10/19 14:45:37;;;;;;;;;;;;;;;11.53;100.00;98699.81;7388691;19;19926;-50
2022/10/19 14:48:19;;;;;;;;;;;;;;;11.72;100.00;98688.41;7386835;19;19921;-58
2022/10/19 14:50:51;;;;;;;;;;;;;;;11.46;100.00;98693.19;7401611;19;19919;-49
2022/10/19 14:53:38;;;;;;;;;;;;;;;11.54;100.00;98688.44;7397632;19;19925;-49
2022/10/19 14:56:10;;;;;;;;;;;;;;;11.47;100.00;98694.88;7397374;19;19944;-49
2022/10/19 15:07:31;;;;;;;;;;;;;;;11.42;100.00;98710.81;7400333;19;19918;-48
2022/10/19 15:13:28;;;;;;;;;;;;;;;11.42;100.00;98715.19;7395592;19;19922;-49
2022/10/19 15:19:24;;;;;;;;;;;;;;;11.19;100.00;98718.88;7396242;19;20303;-50
2022/10/19 15:34:48;;;;;;;;;;;;;;;10.83;100.00;98744.06;7397944;19;19932;-50
2022/10/19 15:37:43;;;;;;;;;;;;;;;10.66;100.00;98752.63;7396819;19;20315;-48
2022/10/19 15:40:15;;;;;;;;;;;;;;;10.71;100.00;98744.59;7398159;19;19922;-48
2022/10/19 15:45:35;;;;;;;;;;;;;;;11.08;100.00;98754.34;7395545;19;19918;-49
2022/10/19 15:48:25;;;;;;;;;;;;;;;10.82;100.00;98753.69;7395780;19;19935;-50
2022/10/19 15:51:00;;;;;;;;;;;;;;;10.54;100.00;98755.75;7381764;19;20220;-49
2022/10/19 15:53:30;;;;;;;;;;;;;;;10.59;100.00;98759.03;7379903;19;19915;-49
2022/10/19 15:56:00;;;;;;;;;;;;;;;10.89;100.00;98765.59;7381245;19;19940;-51
2022/10/19 15:58:32;;;;;;;;;;;;;;;10.72;100.00;98768.09;7384502;19;19914;-49
2022/10/19 16:01:01;;;;;;;;;;;;;;;10.86;100.00;98770.13;7378601;19;19911;-48
2022/10/19 16:03:30;;;;;;;;;;;;;;;10.79;100.00;98781.78;7386898;19;19914;-50
2022/10/19 16:06:02;;;;;;;;;;;;;;;11.04;100.00;98777.22;7387333;19;19911;-51
2022/10/19 16:08:31;;;;;;;;;;;;;;;10.64;100.00;98775.44;7383166;19;19932;-52
2022/10/19 16:11:02;;;;;;;;;;;;;;;10.55;100.00;98778.41;7394689;19;19919;-49
2022/10/19 16:16:20;;;;;;;;;;;;;;;10.30;100.00;98789.94;7396952;19;19943;-49
2022/10/19 16:18:49;;;;;;;;;;;;;;;10.22;100.00;98791.97;7398870;19;19915;-49
2022/10/19 16:27:50;;;;;;;;;;;;;;;10.29;100.00;98810.00;7401787;19;20325;-50
2022/10/19 16:30:20;;;;;;;;;;;;;;;10.36;100.00;98801.00;7401035;19;19915;-48
2022/10/19 16:32:50;;;;;;;;;;;;;;;9.94;100.00;98802.69;7396748;19;20316;-49
2022/10/19 16:38:24;;;;;;;;;;;;;;;10.23;100.00;98809.41;7396837;19;19946;-49
2022/10/19 16:46:46;;;;;;;;;;;;;;;9.94;100.00;98814.91;7394523;19;19919;-49
2022/10/19 16:49:16;;;;;;;;;;;;;;;9.98;100.00;98825.22;7396440;19;20297;-50
2022/10/19 16:51:46;;;;;;;;;;;;;;;10.28;100.00;98825.78;7382911;19;19929;-50
2022/10/19 16:54:17;;;;;;;;;;;;;;;10.23;100.00;98825.13;7392445;19;20315;-50
2022/10/19 16:56:47;;;;;;;;;;;;;;;10.05;100.00;98837.13;7389867;19;19939;-52
2022/10/19 16:59:17;;;;;;;;;;;;;;;10.23;100.00;98830.34;7391340;19;20288;-49
2022/10/19 17:01:50;;;;;;;;;;;;;;;10.29;100.00;98837.94;7389492;19;19919;-58
2022/10/19 17:04:19;;;;;;;;;;;;;;;10.09;100.00;98841.34;7392222;19;20406;-52
2022/10/19 17:06:49;;;;;;;;;;;;;;;10.06;100.00;98844.09;7392141;19;19915;-49
2022/10/19 17:09:18;;;;;;;;;;;;;;;10.10;100.00;98845.69;7387876;19;19915;-59
2022/10/19 17:11:47;;;;;;;;;;;;;;;10.19;100.00;98862.81;7391361;19;20434;-50
2022/10/19 17:14:19;;;;;;;;;;;;;;;9.94;100.00;98870.72;7393036;19;19923;-49
2022/10/19 17:16:51;;;;;;;;;;;;;;;9.93;100.00;98874.22;7386155;19;19943;-58
2022/10/19 17:19:21;;;;;;;;;;;;;;;10.04;100.00;98869.44;7391459;19;19910;-49
2022/10/19 17:21:51;;;;;;;;;;;;;;;9.96;100.00;98865.41;7389780;19;19947;-49
2022/10/19 17:24:21;;;;;;;;;;;;;;;9.85;100.00;98876.28;7388149;19;19927;-49
2022/10/19 17:26:51;;;;;;;;;;;;;;;9.75;100.00;98884.53;7392408;19;19943;-49
2022/10/19 17:29:21;;;;;;;;;;;;;;;9.59;100.00;98884.22;7392212;19;19918;-49
2022/10/19 17:31:53;;;;;;;;;;;;;;;9.68;100.00;98886.50;7387525;19;19918;-49
2022/10/19 17:34:23;;;;;;;;;;;;;;;9.67;100.00;98884.78;7391873;19;19922;-49
2022/10/19 17:36:52;;;;;;;;;;;;;;;9.78;100.00;98887.88;7391708;19;20539;-48
2022/10/19 17:39:22;;;;;;;;;;;;;;;9.88;100.00;98884.03;7383165;19;20315;-49
2022/10/19 17:41:53;;;;;;;;;;;;;;;9.75;100.00;98895.00;7380534;19;19925;-49
2022/10/19 17:44:23;;;;;;;;;;;;;;;9.56;100.00;98892.16;7391796;19;19971;-49
2022/10/19 17:56:02;;;;;;;;;;;;;;;9.72;100.00;98892.50;7404689;19;19910;-49
2022/10/19 17:58:44;;;;;;;;;;;;;;;9.68;100.00;98894.34;7399415;19;19917;-49
2022/10/19 18:01:16;;;;;;;;;;;;;;;9.48;100.00;98895.94;7402336;19;19926;-49
2022/10/19 18:12:26;;;;;;;;;;;;;;;9.38;100.00;98907.66;7402435;19;19909;-50
2022/10/19 18:18:01;;;;;;;;;;;;;;;9.42;100.00;98907.47;7404678;19;19942;-49
2022/10/19 18:20:31;;;;;;;;;;;;;;;9.60;100.00;98909.47;7402064;19;19921;-53
2022/10/19 18:23:00;;;;;;;;;;;;;;;9.28;100.00;98907.13;7400079;19;19923;-49
2022/10/19 18:28:45;;;;;;;;;;;;;;;9.67;100.00;98900.50;7400647;19;20318;-48
2022/10/19 18:34:33;;;;;;;;;;;;;;;9.42;100.00;98917.94;7405152;19;20257;-49
2022/10/19 18:37:03;;;;;;;;;;;;;;;9.68;100.00;98909.19;7400999;19;19925;-49